sensor_id;sensor_type;location;lat;lon;timestamp;P1;durP1;ratioP1;P2;durP2;ratioP2
63350;SDS011;54336;51.058;17.040;2022-07-04T00:02:19;20.98;;;13.90;;
63350;SDS011;54336;51.058;17.040;2022-07-04T00:08:12;19.20;;;14.27;;
63350;SDS011;54336;51.058;17.040;2022-07-04T00:14:05;19.10;;;13.50;;
63350;SDS011;54336;51.058;17.040;2022-07-04T00:19:58;20.58;;;14.23;;
63350;SDS011;54336;51.058;17.040;2022-07-04T00:25:51;19.17;;;14.15;;
63350;SDS011;54336;51.058;17.040;2022-07-04T00:31:43;18.70;;;14.18;;
63350;SDS011;54336;51.058;17.040;2022-07-04T00:37:36;21.25;;;15.07;;
63350;SDS011;54336;51.058;17.040;2022-07-04T00:43:29;21.37;;;15.43;;
63350;SDS011;54336;51.058;17.040;2022-07-04T00:49:32;20.10;;;13.30;;
63350;SDS011;54336;51.058;17.040;2022-07-04T00:55:24;19.30;;;13.70;;
63350;SDS011;54336;51.058;17.040;2022-07-04T01:01:16;18.85;;;14.32;;
63350;SDS011;54336;51.058;17.040;2022-07-04T01:07:10;17.17;;;13.23;;
63350;SDS011;54336;51.058;17.040;2022-07-04T01:18:55;22.88;;;14.23;;
63350;SDS011;54336;51.058;17.040;2022-07-04T01:24:48;19.77;;;14.05;;
63350;SDS011;54336;51.058;17.040;2022-07-04T01:30:41;20.73;;;13.27;;
63350;SDS011;54336;51.058;17.040;2022-07-04T01:36:33;18.58;;;14.00;;
63350;SDS011;54336;51.058;17.040;2022-07-04T01:42:26;21.98;;;14.68;;
63350;SDS011;54336;51.058;17.040;2022-07-04T01:48:19;19.10;;;14.40;;
63350;SDS011;54336;51.058;17.040;2022-07-04T01:54:12;18.43;;;13.70;;
63350;SDS011;54336;51.058;17.040;2022-07-04T02:00:06;23.00;;;14.57;;
63350;SDS011;54336;51.058;17.040;2022-07-04T02:06:18;21.25;;;13.80;;
63350;SDS011;54336;51.058;17.040;2022-07-04T02:12:10;18.23;;;13.70;;
63350;SDS011;54336;51.058;17.040;2022-07-04T02:18:21;22.55;;;13.98;;
63350;SDS011;54336;51.058;17.040;2022-07-04T02:24:14;20.27;;;14.32;;
63350;SDS011;54336;51.058;17.040;2022-07-04T02:30:06;19.63;;;14.30;;
63350;SDS011;54336;51.058;17.040;2022-07-04T02:35:59;21.35;;;13.15;;
63350;SDS011;54336;51.058;17.040;2022-07-04T02:41:52;18.30;;;14.33;;
63350;SDS011;54336;51.058;17.040;2022-07-04T02:47:47;22.88;;;14.43;;
63350;SDS011;54336;51.058;17.040;2022-07-04T02:53:40;20.42;;;15.25;;
63350;SDS011;54336;51.058;17.040;2022-07-04T02:59:32;18.17;;;13.80;;
63350;SDS011;54336;51.058;17.040;2022-07-04T03:05:25;28.05;;;14.57;;
63350;SDS011;54336;51.058;17.040;2022-07-04T03:11:21;19.60;;;13.70;;
63350;SDS011;54336;51.058;17.040;2022-07-04T03:17:13;20.83;;;12.68;;
63350;SDS011;54336;51.058;17.040;2022-07-04T03:23:06;16.13;;;11.98;;
63350;SDS011;54336;51.058;17.040;2022-07-04T03:28:59;15.53;;;11.10;;
63350;SDS011;54336;51.058;17.040;2022-07-04T03:34:53;13.95;;;9.45;;
63350;SDS011;54336;51.058;17.040;2022-07-04T03:40:44;12.07;;;9.13;;
63350;SDS011;54336;51.058;17.040;2022-07-04T03:46:36;14.77;;;9.05;;
63350;SDS011;54336;51.058;17.040;2022-07-04T03:52:29;11.13;;;7.90;;
63350;SDS011;54336;51.058;17.040;2022-07-04T03:58:23;8.48;;;7.22;;
63350;SDS011;54336;51.058;17.040;2022-07-04T04:04:16;12.45;;;7.65;;
63350;SDS011;54336;51.058;17.040;2022-07-04T04:10:28;9.95;;;7.38;;
63350;SDS011;54336;51.058;17.040;2022-07-04T04:16:22;9.57;;;7.18;;
63350;SDS011;54336;51.058;17.040;2022-07-04T04:22:15;9.95;;;7.18;;
63350;SDS011;54336;51.058;17.040;2022-07-04T04:28:08;13.70;;;7.00;;
63350;SDS011;54336;51.058;17.040;2022-07-04T04:34:01;13.43;;;6.30;;
63350;SDS011;54336;51.058;17.040;2022-07-04T04:39:54;7.18;;;5.75;;
63350;SDS011;54336;51.058;17.040;2022-07-04T04:45:47;6.35;;;5.75;;
63350;SDS011;54336;51.058;17.040;2022-07-04T04:51:40;7.63;;;5.75;;
63350;SDS011;54336;51.058;17.040;2022-07-04T04:57:33;9.85;;;5.72;;
63350;SDS011;54336;51.058;17.040;2022-07-04T05:03:27;5.28;;;4.72;;
63350;SDS011;54336;51.058;17.040;2022-07-04T05:09:20;4.45;;;4.00;;
63350;SDS011;54336;51.058;17.040;2022-07-04T05:15:14;8.13;;;4.28;;
63350;SDS011;54336;51.058;17.040;2022-07-04T05:21:07;4.90;;;3.55;;
63350;SDS011;54336;51.058;17.040;2022-07-04T05:27:00;5.00;;;3.55;;
63350;SDS011;54336;51.058;17.040;2022-07-04T05:32:53;3.58;;;3.28;;
63350;SDS011;54336;51.058;17.040;2022-07-04T05:38:45;6.22;;;3.33;;
63350;SDS011;54336;51.058;17.040;2022-07-04T05:44:39;3.80;;;3.33;;
63350;SDS011;54336;51.058;17.040;2022-07-04T05:50:32;8.52;;;2.80;;
63350;SDS011;54336;51.058;17.040;2022-07-04T05:56:25;4.75;;;2.35;;
63350;SDS011;54336;51.058;17.040;2022-07-04T06:02:18;4.57;;;2.60;;
63350;SDS011;54336;51.058;17.040;2022-07-04T06:08:11;5.68;;;2.25;;
63350;SDS011;54336;51.058;17.040;2022-07-04T06:14:04;5.75;;;2.60;;
63350;SDS011;54336;51.058;17.040;2022-07-04T06:19:56;5.10;;;2.40;;
63350;SDS011;54336;51.058;17.040;2022-07-04T06:25:49;5.30;;;2.38;;
63350;SDS011;54336;51.058;17.040;2022-07-04T06:31:43;1.98;;;1.85;;
63350;SDS011;54336;51.058;17.040;2022-07-04T06:37:36;3.97;;;2.22;;
63350;SDS011;54336;51.058;17.040;2022-07-04T06:43:29;3.72;;;2.10;;
63350;SDS011;54336;51.058;17.040;2022-07-04T06:49:22;4.13;;;1.80;;
63350;SDS011;54336;51.058;17.040;2022-07-04T06:55:15;3.10;;;2.15;;
63350;SDS011;54336;51.058;17.040;2022-07-04T07:01:26;4.72;;;2.30;;
63350;SDS011;54336;51.058;17.040;2022-07-04T07:07:19;6.60;;;2.00;;
63350;SDS011;54336;51.058;17.040;2022-07-04T07:13:11;11.65;;;2.47;;
63350;SDS011;54336;51.058;17.040;2022-07-04T07:19:03;2.55;;;1.85;;
63350;SDS011;54336;51.058;17.040;2022-07-04T07:24:56;2.13;;;1.90;;
63350;SDS011;54336;51.058;17.040;2022-07-04T07:30:48;7.22;;;2.63;;
63350;SDS011;54336;51.058;17.040;2022-07-04T07:36:40;2.72;;;2.22;;
63350;SDS011;54336;51.058;17.040;2022-07-04T07:42:33;3.85;;;2.28;;
63350;SDS011;54336;51.058;17.040;2022-07-04T07:48:26;5.45;;;2.25;;
63350;SDS011;54336;51.058;17.040;2022-07-04T07:54:19;3.65;;;2.53;;
63350;SDS011;54336;51.058;17.040;2022-07-04T08:00:33;5.60;;;2.60;;
63350;SDS011;54336;51.058;17.040;2022-07-04T08:06:45;5.80;;;2.20;;
63350;SDS011;54336;51.058;17.040;2022-07-04T08:12:57;5.70;;;2.95;;
63350;SDS011;54336;51.058;17.040;2022-07-04T08:18:50;2.83;;;2.55;;
63350;SDS011;54336;51.058;17.040;2022-07-04T08:24:43;4.20;;;2.58;;
63350;SDS011;54336;51.058;17.040;2022-07-04T08:30:36;3.65;;;2.53;;
63350;SDS011;54336;51.058;17.040;2022-07-04T08:36:30;3.20;;;2.28;;
63350;SDS011;54336;51.058;17.040;2022-07-04T08:42:23;3.22;;;2.20;;
63350;SDS011;54336;51.058;17.040;2022-07-04T08:48:16;7.07;;;2.60;;
63350;SDS011;54336;51.058;17.040;2022-07-04T08:54:09;6.25;;;3.05;;
63350;SDS011;54336;51.058;17.040;2022-07-04T09:00:22;4.35;;;2.78;;
63350;SDS011;54336;51.058;17.040;2022-07-04T09:06:14;2.88;;;2.65;;
63350;SDS011;54336;51.058;17.040;2022-07-04T09:12:08;7.65;;;3.10;;
63350;SDS011;54336;51.058;17.040;2022-07-04T09:18:01;3.15;;;2.80;;
63350;SDS011;54336;51.058;17.040;2022-07-04T09:23:57;4.80;;;3.53;;
63350;SDS011;54336;51.058;17.040;2022-07-04T09:29:52;6.70;;;3.40;;
63350;SDS011;54336;51.058;17.040;2022-07-04T09:35:45;6.80;;;3.65;;
63350;SDS011;54336;51.058;17.040;2022-07-04T09:41:59;4.53;;;4.10;;
63350;SDS011;54336;51.058;17.040;2022-07-04T09:47:55;20.63;;;5.70;;
63350;SDS011;54336;51.058;17.040;2022-07-04T09:53:50;4.45;;;4.05;;
63350;SDS011;54336;51.058;17.040;2022-07-04T09:59:45;9.90;;;5.03;;
63350;SDS011;54336;51.058;17.040;2022-07-04T10:05:47;6.13;;;4.40;;
63350;SDS011;54336;51.058;17.040;2022-07-04T10:11:54;7.15;;;4.90;;
63350;SDS011;54336;51.058;17.040;2022-07-04T10:17:47;6.53;;;5.00;;
63350;SDS011;54336;51.058;17.040;2022-07-04T10:23:40;7.22;;;4.93;;
63350;SDS011;54336;51.058;17.040;2022-07-04T10:29:33;5.95;;;5.45;;
63350;SDS011;54336;51.058;17.040;2022-07-04T10:42:05;9.32;;;4.88;;
63350;SDS011;54336;51.058;17.040;2022-07-04T10:47:58;5.63;;;5.07;;
63350;SDS011;54336;51.058;17.040;2022-07-04T10:53:57;7.70;;;4.97;;
63350;SDS011;54336;51.058;17.040;2022-07-04T11:05:49;5.38;;;4.30;;
63350;SDS011;54336;51.058;17.040;2022-07-04T11:17:46;4.78;;;4.35;;
63350;SDS011;54336;51.058;17.040;2022-07-04T11:23:39;7.05;;;4.00;;
63350;SDS011;54336;51.058;17.040;2022-07-04T11:29:53;7.07;;;4.63;;
63350;SDS011;54336;51.058;17.040;2022-07-04T11:36:03;14.13;;;4.50;;
63350;SDS011;54336;51.058;17.040;2022-07-04T11:41:57;5.75;;;4.30;;
63350;SDS011;54336;51.058;17.040;2022-07-04T11:48:09;6.53;;;4.53;;
63350;SDS011;54336;51.058;17.040;2022-07-04T11:54:07;4.55;;;3.97;;
63350;SDS011;54336;51.058;17.040;2022-07-04T12:00:20;5.32;;;4.35;;
63350;SDS011;54336;51.058;17.040;2022-07-04T12:06:16;11.50;;;9.02;;
63350;SDS011;54336;51.058;17.040;2022-07-04T12:12:10;6.53;;;4.47;;
63350;SDS011;54336;51.058;17.040;2022-07-04T12:18:03;4.47;;;4.18;;
63350;SDS011;54336;51.058;17.040;2022-07-04T12:23:58;7.22;;;4.25;;
63350;SDS011;54336;51.058;17.040;2022-07-04T12:29:59;5.75;;;4.20;;
63350;SDS011;54336;51.058;17.040;2022-07-04T12:35:57;6.90;;;3.90;;
63350;SDS011;54336;51.058;17.040;2022-07-04T12:48:16;11.02;;;4.35;;
63350;SDS011;54336;51.058;17.040;2022-07-04T12:54:10;6.20;;;4.28;;
63350;SDS011;54336;51.058;17.040;2022-07-04T13:00:03;4.38;;;3.97;;
63350;SDS011;54336;51.058;17.040;2022-07-04T13:06:17;6.72;;;4.03;;
63350;SDS011;54336;51.058;17.040;2022-07-04T13:12:11;8.75;;;3.97;;
63350;SDS011;54336;51.058;17.040;2022-07-04T13:18:16;5.22;;;4.70;;
63350;SDS011;54336;51.058;17.040;2022-07-04T13:24:09;4.70;;;4.28;;
63350;SDS011;54336;51.058;17.040;2022-07-04T13:30:02;7.43;;;4.47;;
63350;SDS011;54336;51.058;17.040;2022-07-04T13:35:55;4.55;;;3.75;;
63350;SDS011;54336;51.058;17.040;2022-07-04T13:41:48;6.97;;;4.13;;
63350;SDS011;54336;51.058;17.040;2022-07-04T13:47:42;5.93;;;5.00;;
63350;SDS011;54336;51.058;17.040;2022-07-04T13:53:34;5.85;;;3.70;;
63350;SDS011;54336;51.058;17.040;2022-07-04T13:59:28;4.97;;;3.78;;
63350;SDS011;54336;51.058;17.040;2022-07-04T14:05:21;4.75;;;3.65;;
63350;SDS011;54336;51.058;17.040;2022-07-04T14:11:15;5.57;;;3.40;;
63350;SDS011;54336;51.058;17.040;2022-07-04T14:17:09;5.68;;;3.10;;
63350;SDS011;54336;51.058;17.040;2022-07-04T14:23:21;3.45;;;3.03;;
63350;SDS011;54336;51.058;17.040;2022-07-04T14:29:31;3.47;;;3.22;;
63350;SDS011;54336;51.058;17.040;2022-07-04T14:35:28;3.40;;;2.92;;
63350;SDS011;54336;51.058;17.040;2022-07-04T14:41:21;5.30;;;3.35;;
63350;SDS011;54336;51.058;17.040;2022-07-04T14:47:14;5.47;;;2.95;;
63350;SDS011;54336;51.058;17.040;2022-07-04T14:53:06;4.38;;;3.28;;
63350;SDS011;54336;51.058;17.040;2022-07-04T14:59:03;5.07;;;3.38;;
63350;SDS011;54336;51.058;17.040;2022-07-04T15:04:57;6.13;;;3.10;;
63350;SDS011;54336;51.058;17.040;2022-07-04T15:10:49;3.70;;;3.13;;
63350;SDS011;54336;51.058;17.040;2022-07-04T15:16:51;6.53;;;3.03;;
63350;SDS011;54336;51.058;17.040;2022-07-04T15:22:44;3.20;;;3.00;;
63350;SDS011;54336;51.058;17.040;2022-07-04T15:29:01;6.95;;;3.17;;
63350;SDS011;54336;51.058;17.040;2022-07-04T15:34:54;5.18;;;3.20;;
63350;SDS011;54336;51.058;17.040;2022-07-04T15:41:04;3.90;;;2.80;;
63350;SDS011;54336;51.058;17.040;2022-07-04T15:46:56;3.20;;;3.00;;
63350;SDS011;54336;51.058;17.040;2022-07-04T15:53:03;3.00;;;2.80;;
63350;SDS011;54336;51.058;17.040;2022-07-04T15:58:56;4.28;;;2.63;;
63350;SDS011;54336;51.058;17.040;2022-07-04T16:04:49;2.95;;;2.70;;
63350;SDS011;54336;51.058;17.040;2022-07-04T16:10:42;4.05;;;2.97;;
63350;SDS011;54336;51.058;17.040;2022-07-04T16:16:34;2.95;;;2.85;;
63350;SDS011;54336;51.058;17.040;2022-07-04T16:22:27;5.28;;;3.08;;
63350;SDS011;54336;51.058;17.040;2022-07-04T16:28:20;4.57;;;3.13;;
63350;SDS011;54336;51.058;17.040;2022-07-04T16:34:13;3.45;;;2.90;;
63350;SDS011;54336;51.058;17.040;2022-07-04T16:40:06;2.72;;;2.50;;
63350;SDS011;54336;51.058;17.040;2022-07-04T16:45:59;3.28;;;2.80;;
63350;SDS011;54336;51.058;17.040;2022-07-04T16:51:52;3.45;;;3.22;;
63350;SDS011;54336;51.058;17.040;2022-07-04T16:57:45;5.30;;;3.20;;
63350;SDS011;54336;51.058;17.040;2022-07-04T17:03:38;3.53;;;3.20;;
63350;SDS011;54336;51.058;17.040;2022-07-04T17:09:31;3.42;;;3.15;;
63350;SDS011;54336;51.058;17.040;2022-07-04T17:15:24;5.75;;;3.75;;
63350;SDS011;54336;51.058;17.040;2022-07-04T17:21:17;4.93;;;3.58;;
63350;SDS011;54336;51.058;17.040;2022-07-04T17:33:02;9.00;;;4.15;;
63350;SDS011;54336;51.058;17.040;2022-07-04T17:38:56;3.47;;;3.17;;
63350;SDS011;54336;51.058;17.040;2022-07-04T17:44:49;4.47;;;3.50;;
63350;SDS011;54336;51.058;17.040;2022-07-04T17:56:35;2.78;;;2.58;;
63350;SDS011;54336;51.058;17.040;2022-07-04T18:02:28;9.52;;;3.20;;
63350;SDS011;54336;51.058;17.040;2022-07-04T18:08:21;6.85;;;2.75;;
63350;SDS011;54336;51.058;17.040;2022-07-04T18:14:14;7.20;;;3.50;;
63350;SDS011;54336;51.058;17.040;2022-07-04T18:20:08;7.05;;;4.03;;
63350;SDS011;54336;51.058;17.040;2022-07-04T18:26:02;8.02;;;4.38;;
63350;SDS011;54336;51.058;17.040;2022-07-04T18:31:56;4.30;;;3.55;;
63350;SDS011;54336;51.058;17.040;2022-07-04T18:43:43;5.23;;;3.90;;
63350;SDS011;54336;51.058;17.040;2022-07-04T18:49:37;5.75;;;5.15;;
63350;SDS011;54336;51.058;17.040;2022-07-04T18:55:30;5.30;;;4.80;;
63350;SDS011;54336;51.058;17.040;2022-07-04T19:07:16;5.90;;;5.40;;
63350;SDS011;54336;51.058;17.040;2022-07-04T19:13:11;9.13;;;5.78;;
63350;SDS011;54336;51.058;17.040;2022-07-04T19:19:04;6.95;;;5.53;;
63350;SDS011;54336;51.058;17.040;2022-07-04T19:24:58;7.05;;;5.88;;
63350;SDS011;54336;51.058;17.040;2022-07-04T19:30:54;9.07;;;6.85;;
63350;SDS011;54336;51.058;17.040;2022-07-04T19:36:47;10.70;;;6.32;;
63350;SDS011;54336;51.058;17.040;2022-07-04T19:42:40;6.90;;;6.30;;
63350;SDS011;54336;51.058;17.040;2022-07-04T19:48:34;11.15;;;6.90;;
63350;SDS011;54336;51.058;17.040;2022-07-04T19:54:33;5.80;;;5.30;;
63350;SDS011;54336;51.058;17.040;2022-07-04T20:00:26;7.03;;;6.30;;
63350;SDS011;54336;51.058;17.040;2022-07-04T20:12:11;8.65;;;7.07;;
63350;SDS011;54336;51.058;17.040;2022-07-04T20:18:05;7.43;;;6.72;;
63350;SDS011;54336;51.058;17.040;2022-07-04T20:23:59;7.70;;;7.00;;
63350;SDS011;54336;51.058;17.040;2022-07-04T20:29:52;8.47;;;7.67;;
63350;SDS011;54336;51.058;17.040;2022-07-04T20:35:53;8.43;;;7.63;;
63350;SDS011;54336;51.058;17.040;2022-07-04T20:41:45;8.80;;;7.90;;
63350;SDS011;54336;51.058;17.040;2022-07-04T20:47:38;17.67;;;8.60;;
63350;SDS011;54336;51.058;17.040;2022-07-04T20:53:32;9.93;;;8.85;;
63350;SDS011;54336;51.058;17.040;2022-07-04T20:59:25;21.58;;;13.82;;
63350;SDS011;54336;51.058;17.040;2022-07-04T21:05:17;15.85;;;11.90;;
63350;SDS011;54336;51.058;17.040;2022-07-04T21:14:19;13.68;;;9.63;;
63350;SDS011;54336;51.058;17.040;2022-07-04T21:20:11;12.67;;;9.47;;
63350;SDS011;54336;51.058;17.040;2022-07-04T21:26:04;10.73;;;9.43;;
63350;SDS011;54336;51.058;17.040;2022-07-04T21:31:56;14.10;;;10.30;;
63350;SDS011;54336;51.058;17.040;2022-07-04T21:37:49;13.27;;;9.88;;
63350;SDS011;54336;51.058;17.040;2022-07-04T21:43:42;14.07;;;10.80;;
63350;SDS011;54336;51.058;17.040;2022-07-04T21:49:35;13.88;;;10.13;;
63350;SDS011;54336;51.058;17.040;2022-07-04T21:55:27;12.30;;;11.07;;
63350;SDS011;54336;51.058;17.040;2022-07-04T22:01:20;14.95;;;10.00;;
63350;SDS011;54336;51.058;17.040;2022-07-04T22:07:13;11.70;;;9.63;;
63350;SDS011;54336;51.058;17.040;2022-07-04T22:13:05;12.43;;;10.50;;
63350;SDS011;54336;51.058;17.040;2022-07-04T22:18:58;16.98;;;11.18;;
63350;SDS011;54336;51.058;17.040;2022-07-04T22:24:51;12.33;;;11.00;;
63350;SDS011;54336;51.058;17.040;2022-07-04T22:30:44;16.60;;;12.43;;
63350;SDS011;54336;51.058;17.040;2022-07-04T22:36:37;15.05;;;11.77;;
63350;SDS011;54336;51.058;17.040;2022-07-04T22:42:30;13.88;;;11.68;;
63350;SDS011;54336;51.058;17.040;2022-07-04T22:48:24;18.42;;;12.38;;
63350;SDS011;54336;51.058;17.040;2022-07-04T22:54:17;21.53;;;15.53;;
63350;SDS011;54336;51.058;17.040;2022-07-04T23:00:28;18.30;;;14.85;;
63350;SDS011;54336;51.058;17.040;2022-07-04T23:06:20;20.92;;;15.02;;
63350;SDS011;54336;51.058;17.040;2022-07-04T23:12:13;16.37;;;13.83;;
63350;SDS011;54336;51.058;17.040;2022-07-04T23:18:06;14.85;;;12.80;;
63350;SDS011;54336;51.058;17.040;2022-07-04T23:23:59;14.80;;;12.33;;
63350;SDS011;54336;51.058;17.040;2022-07-04T23:29:51;14.05;;;12.52;;
63350;SDS011;54336;51.058;17.040;2022-07-04T23:35:44;19.35;;;12.00;;
63350;SDS011;54336;51.058;17.040;2022-07-04T23:41:36;13.63;;;11.98;;
63350;SDS011;54336;51.058;17.040;2022-07-04T23:47:29;13.30;;;11.67;;
63350;SDS011;54336;51.058;17.040;2022-07-04T23:53:22;14.23;;;11.93;;
63350;SDS011;54336;51.058;17.040;2022-07-04T23:59:15;17.60;;;12.03;;
